Time;durP1;ratioP1;P1;durP2;ratioP2;P2;SDS_P1;SDS_P2;PMS_P1;PMS_P2;Temp;Humidity;BMP_temperature;BMP_pressure;BME280_temperature;BME280_humidity;BME280_pressure;Samples;Min_cycle;Max_cycle;Signal;HPM_P1;HPM_P2
2023/05/10 00:01:03;;;;;;;;;;;;;;;-144.99;63.26;52236.13;5101282;28;20338;-70
2023/05/10 00:03:30;;;;;;;;;;;;;;;-144.99;63.53;52248.34;5089714;28;19928;-71
2023/05/10 00:05:57;;;;;;;;;;;;;;;-144.99;63.46;52227.97;5087794;28;20000;-70
2023/05/10 00:08:23;;;;;;;;;;;;;;;-144.99;63.82;52232.03;5090709;28;19932;-69
2023/05/10 00:10:50;;;;;;;;;;;;;;;-144.99;63.85;52248.34;5105083;28;19932;-71
2023/05/10 00:13:17;;;;;;;;;;;;;;;-144.99;64.43;52272.81;5092209;28;20458;-71
2023/05/10 00:15:44;;;;;;;;;;;;;;;-144.99;63.97;52252.44;5090804;28;19924;-72
2023/05/10 00:18:11;;;;;;;;;;;;;;;-144.99;64.32;52266.69;5100509;28;19924;-72
2023/05/10 00:20:37;;;;;;;;;;;;;;;-144.99;64.46;52280.97;5099192;28;19955;-73
2023/05/10 00:23:04;;;;;;;;;;;;;;;-144.99;64.34;52256.50;5087065;28;19968;-71
2023/05/10 00:25:31;;;;;;;;;;;;;;;-144.99;64.78;52295.22;5098096;28;19941;-72
2023/05/10 00:27:58;;;;;;;;;;;;;;;-144.99;64.41;52252.44;5099379;28;20402;-74
2023/05/10 00:30:24;;;;;;;;;;;;;;;-144.99;65.30;52260.56;5095366;28;19936;-75
2023/05/10 00:32:52;;;;;;;;;;;;;;;-144.99;65.45;52260.56;5094523;28;19942;-76
2023/05/10 00:35:19;;;;;;;;;;;;;;;-144.99;65.64;52283.00;5092451;28;19924;-77
2023/05/10 00:37:45;;;;;;;;;;;;;;;-144.99;65.55;52244.28;5101593;28;20344;-77
2023/05/10 00:40:12;;;;;;;;;;;;;;;-144.99;65.38;52276.88;5090317;28;19924;-76
2023/05/10 00:42:39;;;;;;;;;;;;;;;-144.99;65.44;52234.09;5088108;28;19929;-76
2023/05/10 00:45:06;;;;;;;;;;;;;;;-144.99;65.46;52270.78;5087662;28;20211;-65
2023/05/10 00:47:33;;;;;;;;;;;;;;;-144.99;65.34;52293.19;5090333;28;19928;-65
2023/05/10 00:50:01;;;;;;;;;;;;;;;-144.99;65.64;52256.50;5111826;28;20288;-64
2023/05/10 00:52:28;;;;;;;;;;;;;;;-144.99;65.53;52293.19;5091989;27;19924;-66
2023/05/10 00:54:55;;;;;;;;;;;;;;;-144.99;65.76;52234.09;5091564;28;19939;-66
2023/05/10 00:57:22;;;;;;;;;;;;;;;-144.99;65.66;52256.50;5099043;28;19958;-66
2023/05/10 00:59:48;;;;;;;;;;;;;;;-144.99;65.87;52236.13;5098523;28;19928;-67
2023/05/10 01:02:15;;;;;;;;;;;;;;;-144.99;66.96;52256.50;5091025;28;19983;-67
2023/05/10 01:04:42;;;;;;;;;;;;;;;-144.99;67.25;52289.13;5099419;28;19923;-66
2023/05/10 01:07:10;;;;;;;;;;;;;;;-144.99;67.43;52256.50;5101195;28;20029;-66
2023/05/10 01:09:36;;;;;;;;;;;;;;;-144.99;66.71;52252.44;5102294;28;20222;-66
2023/05/10 01:12:03;;;;;;;;;;;;;;;-144.99;66.66;52293.19;5092038;28;20405;-66
2023/05/10 01:14:31;;;;;;;;;;;;;;;-144.99;66.60;52264.66;5093442;27;19924;-66
2023/05/10 01:16:57;;;;;;;;;;;;;;;-144.99;66.80;52301.34;5096952;28;19927;-73
2023/05/10 01:19:26;;;;;;;;;;;;;;;-144.99;66.96;52225.94;5103765;28;20001;-67
2023/05/10 01:21:59;;;;;;;;;;;;;;;-144.99;67.73;52313.56;5090491;28;19960;-67
2023/05/10 01:24:47;;;;;;;;;;;;;;;-144.99;67.53;52260.56;5097285;28;19924;-67
2023/05/10 01:27:31;;;;;;;;;;;;;;;-144.99;67.87;52293.19;5093730;28;20487;-67
2023/05/10 01:30:06;;;;;;;;;;;;;;;-144.99;67.45;52252.44;5091145;28;20003;-67
2023/05/10 01:32:36;;;;;;;;;;;;;;;-144.99;67.51;52268.72;5091787;28;20019;-67
2023/05/10 01:35:04;;;;;;;;;;;;;;;-144.99;67.48;52293.19;5107034;28;19978;-67
2023/05/10 01:37:34;;;;;;;;;;;;;;;-144.99;68.14;52248.34;5098984;28;19990;-67
2023/05/10 01:40:03;;;;;;;;;;;;;;;-144.99;67.80;52268.72;5090206;28;19924;-66
2023/05/10 01:42:33;;;;;;;;;;;;;;;-144.99;67.61;52285.03;5094521;28;19971;-68
2023/05/10 01:45:03;;;;;;;;;;;;;;;-144.99;67.78;52276.88;5094319;28;20380;-67
2023/05/10 01:47:34;;;;;;;;;;;;;;;-144.99;67.64;52252.44;5090873;28;19931;-67
2023/05/10 01:50:03;;;;;;;;;;;;;;;-144.99;67.68;52256.50;5094202;28;19971;-66
2023/05/10 01:52:33;;;;;;;;;;;;;;;-144.99;67.67;52268.72;5089721;28;19982;-67
2023/05/10 01:55:02;;;;;;;;;;;;;;;-144.99;67.66;52268.72;5097096;28;19924;-67
2023/05/10 01:57:32;;;;;;;;;;;;;;;-144.99;67.67;52242.22;5097508;28;20338;-67
2023/05/10 02:00:00;;;;;;;;;;;;;;;-144.99;67.90;52280.97;5100203;28;19977;-67
2023/05/10 02:02:28;;;;;;;;;;;;;;;-144.99;68.04;52244.28;5102493;28;19938;-67
2023/05/10 02:04:56;;;;;;;;;;;;;;;-144.99;67.92;52248.34;5089518;28;20354;-67
2023/05/10 02:07:24;;;;;;;;;;;;;;;-144.99;68.02;52260.56;5094496;28;20194;-67
2023/05/10 02:09:50;;;;;;;;;;;;;;;-144.99;68.06;52252.44;5091836;28;19928;-68
2023/05/10 02:12:18;;;;;;;;;;;;;;;-144.99;68.27;52285.03;5102819;28;19973;-67
2023/05/10 02:14:46;;;;;;;;;;;;;;;-144.99;68.07;52280.97;5107207;27;19923;-70
2023/05/10 02:17:13;;;;;;;;;;;;;;;-144.99;68.25;52268.72;5097026;28;19976;-70
2023/05/10 02:19:41;;;;;;;;;;;;;;;-144.99;68.27;52246.31;5088913;28;19962;-70
2023/05/10 02:22:09;;;;;;;;;;;;;;;-144.99;68.34;52272.81;5089109;28;19985;-69
2023/05/10 02:24:37;;;;;;;;;;;;;;;-144.99;68.32;52260.56;5095475;28;19923;-69
2023/05/10 02:27:05;;;;;;;;;;;;;;;-144.99;68.25;52244.28;5094095;28;20120;-70
2023/05/10 02:29:33;;;;;;;;;;;;;;;-144.99;68.39;52244.28;5094283;28;20289;-70
2023/05/10 02:32:00;;;;;;;;;;;;;;;-144.99;68.41;52256.50;5100795;28;19934;-71
2023/05/10 02:34:28;;;;;;;;;;;;;;;-144.99;68.37;52248.34;5100739;28;20008;-69
2023/05/10 02:36:54;;;;;;;;;;;;;;;-144.99;68.69;52262.63;5096514;28;19989;-72
2023/05/10 02:39:21;;;;;;;;;;;;;;;-144.99;68.82;52240.19;5093194;28;20023;-72
2023/05/10 02:41:50;;;;;;;;;;;;;;;-144.99;68.64;52264.66;5089716;28;19967;-72
2023/05/10 02:44:18;;;;;;;;;;;;;;;-144.99;68.98;52285.03;5095730;28;19984;-72
2023/05/10 02:46:45;;;;;;;;;;;;;;;-144.99;69.52;52303.38;5092101;28;19924;-70
2023/05/10 02:49:12;;;;;;;;;;;;;;;-144.99;69.88;52289.13;5108224;28;19969;-70
2023/05/10 02:51:41;;;;;;;;;;;;;;;-144.99;70.25;52285.03;5096947;28;19924;-69
2023/05/10 02:54:10;;;;;;;;;;;;;;;-144.99;70.14;52236.13;5088914;28;20306;-77
2023/05/10 02:56:41;;;;;;;;;;;;;;;-144.99;70.47;52238.16;5089655;28;19924;-76
2023/05/10 02:59:09;;;;;;;;;;;;;;;-144.99;70.62;52272.81;5092126;28;19932;-73
2023/05/10 03:01:35;;;;;;;;;;;;;;;-144.99;70.57;52289.13;5091672;28;19924;-74
2023/05/10 03:04:02;;;;;;;;;;;;;;;-144.99;70.58;52244.28;5095814;28;19928;-73
2023/05/10 03:06:28;;;;;;;;;;;;;;;-144.99;70.63;52276.88;5090375;28;19936;-73
2023/05/10 03:08:56;;;;;;;;;;;;;;;-144.99;70.82;52295.22;5088187;28;20010;-73
2023/05/10 03:11:28;;;;;;;;;;;;;;;-144.99;70.82;52297.25;5090350;28;19924;-73
2023/05/10 03:14:01;;;;;;;;;;;;;;;-144.99;71.11;52256.50;5094976;27;19928;-77
2023/05/10 03:16:33;;;;;;;;;;;;;;;-144.99;70.97;52280.97;5087908;28;19936;-77
2023/05/10 03:19:05;;;;;;;;;;;;;;;-144.99;70.80;52301.34;5093606;28;20238;-77
2023/05/10 03:21:32;;;;;;;;;;;;;;;-144.99;71.02;52268.72;5101922;28;19997;-78
2023/05/10 03:24:00;;;;;;;;;;;;;;;-144.99;71.17;52305.41;5109817;28;19928;-80
2023/05/10 03:26:28;;;;;;;;;;;;;;;-144.99;71.24;52313.56;5108814;28;19924;-80
2023/05/10 03:28:55;;;;;;;;;;;;;;;-144.99;71.39;52260.56;5097863;28;19930;-80
2023/05/10 03:31:22;;;;;;;;;;;;;;;-144.99;71.48;52236.13;5095825;28;19924;-79
2023/05/10 03:33:50;;;;;;;;;;;;;;;-144.99;70.69;52215.75;5107423;28;19985;-73
2023/05/10 03:36:17;;;;;;;;;;;;;;;-144.99;71.36;52272.81;5088651;28;20406;-72
2023/05/10 03:38:43;;;;;;;;;;;;;;;-144.99;71.47;52264.66;5096214;28;19988;-72
2023/05/10 03:41:10;;;;;;;;;;;;;;;-144.99;71.53;52236.13;5087766;28;19925;-72
2023/05/10 03:43:36;;;;;;;;;;;;;;;-144.99;71.51;52240.19;5092935;28;19992;-72
2023/05/10 03:46:03;;;;;;;;;;;;;;;-144.99;71.39;52272.81;5087965;28;20041;-72
2023/05/10 03:48:30;;;;;;;;;;;;;;;-144.99;71.58;52248.34;5091664;28;19935;-72
2023/05/10 03:50:58;;;;;;;;;;;;;;;-144.99;71.79;52264.66;5096157;28;19927;-72
2023/05/10 03:53:24;;;;;;;;;;;;;;;-144.99;71.83;52248.34;5090667;28;19931;-71
2023/05/10 03:55:51;;;;;;;;;;;;;;;-144.99;71.94;52262.63;5094876;28;19993;-70
2023/05/10 03:58:18;;;;;;;;;;;;;;;-144.99;72.15;52260.56;5093497;28;20263;-69
2023/05/10 04:00:45;;;;;;;;;;;;;;;-144.99;71.81;52262.63;5102770;28;19924;-69
2023/05/10 04:03:11;;;;;;;;;;;;;;;-144.99;71.82;52232.03;5102943;28;19930;-70
2023/05/10 04:05:38;;;;;;;;;;;;;;;-144.99;72.18;52260.56;5089264;28;19928;-69
2023/05/10 04:08:06;;;;;;;;;;;;;;;-144.99;71.94;52211.66;5094087;28;19924;-70
2023/05/10 04:10:33;;;;;;;;;;;;;;;-144.99;71.96;52244.28;5090998;28;20005;-70
2023/05/10 04:12:59;;;;;;;;;;;;;;;-144.99;72.13;52289.13;5089100;28;20407;-70
2023/05/10 04:15:26;;;;;;;;;;;;;;;-144.99;72.14;52232.03;5090653;28;19971;-72
2023/05/10 04:17:53;;;;;;;;;;;;;;;-144.99;72.20;52211.66;5097596;28;19935;-71
2023/05/10 04:20:19;;;;;;;;;;;;;;;-144.99;72.29;52260.56;5094847;28;20023;-71
2023/05/10 04:22:46;;;;;;;;;;;;;;;-144.99;72.14;52287.06;5102357;28;20381;-67
2023/05/10 04:25:14;;;;;;;;;;;;;;;-144.99;72.23;52266.69;5097898;28;19931;-72
2023/05/10 04:27:41;;;;;;;;;;;;;;;-144.99;72.21;52236.13;5094392;28;19924;-68
2023/05/10 04:30:08;;;;;;;;;;;;;;;-144.99;72.12;52236.13;5096655;28;19974;-70
2023/05/10 04:32:35;;;;;;;;;;;;;;;-144.99;72.53;52240.19;5093019;28;19932;-68
2023/05/10 04:35:03;;;;;;;;;;;;;;;-144.99;72.21;52272.81;5098842;28;19977;-69
2023/05/10 04:37:29;;;;;;;;;;;;;;;-144.99;72.26;52264.66;5103250;28;19924;-69
2023/05/10 04:39:56;;;;;;;;;;;;;;;-144.99;72.45;52232.03;5099243;28;20278;-71
2023/05/10 04:42:24;;;;;;;;;;;;;;;-144.99;72.57;52272.81;5096808;28;19977;-70
2023/05/10 04:44:51;;;;;;;;;;;;;;;-144.99;72.32;52215.75;5100736;28;19924;-69
2023/05/10 04:47:18;;;;;;;;;;;;;;;-144.99;71.39;52244.28;5094456;28;19928;-69
2023/05/10 04:49:45;;;;;;;;;;;;;;;-144.99;71.07;52244.28;5094944;28;19947;-70
2023/05/10 04:52:11;;;;;;;;;;;;;;;-144.99;71.23;52232.03;5101331;28;19924;-69
2023/05/10 04:54:38;;;;;;;;;;;;;;;-144.99;71.32;52211.66;5091641;28;20031;-69
2023/05/10 04:57:04;;;;;;;;;;;;;;;-144.99;71.78;52232.03;5105415;28;19976;-59
2023/05/10 04:59:32;;;;;;;;;;;;;;;-144.99;72.11;52244.28;5093490;27;19928;-66
2023/05/10 05:02:01;;;;;;;;;;;;;;;-144.99;71.70;52256.50;5098042;28;20208;-68
2023/05/10 05:04:27;;;;;;;;;;;;;;;-144.99;71.79;52223.88;5102752;28;19971;-68
2023/05/10 05:06:54;;;;;;;;;;;;;;;-144.99;71.74;52217.78;5093554;28;19924;-67
2023/05/10 05:09:20;;;;;;;;;;;;;;;-144.99;71.72;52232.03;5092626;28;20013;-67
2023/05/10 05:11:47;;;;;;;;;;;;;;;-144.99;71.26;52234.09;5090570;28;20373;-67
2023/05/10 05:14:13;;;;;;;;;;;;;;;-144.99;70.69;52221.84;5093631;27;19956;-67
2023/05/10 05:16:41;;;;;;;;;;;;;;;-144.99;70.42;52207.59;4386307;27;10000762;-67
2023/05/10 05:19:08;;;;;;;;;;;;;;;-144.99;70.36;52219.81;5104021;28;20404;-67
2023/05/10 05:21:34;;;;;;;;;;;;;;;-144.99;70.71;52236.13;5102516;28;19988;-67
2023/05/10 05:24:01;;;;;;;;;;;;;;;-144.99;70.30;52203.50;5089407;28;19939;-68
2023/05/10 05:26:27;;;;;;;;;;;;;;;-144.99;70.52;52236.13;5097250;28;19927;-67
2023/05/10 05:28:54;;;;;;;;;;;;;;;-144.99;70.48;52191.28;5094820;28;20466;-68
2023/05/10 05:31:21;;;;;;;;;;;;;;;-144.99;70.05;52227.97;5087370;28;19985;-67
2023/05/10 05:33:48;;;;;;;;;;;;;;;-144.99;69.98;52158.66;5086854;28;20026;-67
2023/05/10 05:36:15;;;;;;;;;;;;;;;-144.99;70.01;52183.13;5093667;28;20456;-68
2023/05/10 05:38:42;;;;;;;;;;;;;;;-144.99;70.12;52195.34;5089174;28;19985;-68
2023/05/10 05:41:09;;;;;;;;;;;;;;;-144.99;69.77;52195.34;5091460;28;19923;-67
2023/05/10 05:43:35;;;;;;;;;;;;;;;-144.99;69.57;52227.97;5099440;28;20031;-68
2023/05/10 05:46:02;;;;;;;;;;;;;;;-144.99;70.03;52227.97;5099082;28;20590;-68
2023/05/10 05:48:33;;;;;;;;;;;;;;;-144.99;69.61;52227.97;5088981;28;19967;-68
2023/05/10 05:51:01;;;;;;;;;;;;;;;-144.99;69.48;52199.44;5090905;28;20466;-68
2023/05/10 05:53:27;;;;;;;;;;;;;;;-144.99;69.56;52207.59;5095664;28;20278;-68
2023/05/10 05:55:55;;;;;;;;;;;;;;;-144.99;70.10;52234.09;5093591;28;19965;-68
2023/05/10 05:58:21;;;;;;;;;;;;;;;-144.99;69.77;52203.50;5090188;28;19934;-67
2023/05/10 06:00:48;;;;;;;;;;;;;;;-144.99;69.62;52219.81;5101936;28;19959;-69
2023/05/10 06:03:14;;;;;;;;;;;;;;;-144.99;69.20;52236.13;5087717;28;19985;-69
2023/05/10 06:05:41;;;;;;;;;;;;;;;-144.99;69.29;52209.63;5090787;28;19977;-67
2023/05/10 06:08:09;;;;;;;;;;;;;;;-144.99;69.33;52227.97;5087233;27;20009;-69
2023/05/10 06:10:35;;;;;;;;;;;;;;;-144.99;69.71;52187.19;5089236;28;20441;-67
2023/05/10 06:13:02;;;;;;;;;;;;;;;-144.99;69.51;52223.88;5098057;28;20035;-67
2023/05/10 06:15:28;;;;;;;;;;;;;;;-144.99;69.50;52221.84;5099192;27;20429;-67
2023/05/10 06:17:55;;;;;;;;;;;;;;;-144.99;69.37;52199.44;5086358;28;19979;-69
2023/05/10 06:20:21;;;;;;;;;;;;;;;-144.99;69.46;52223.88;5087939;28;19931;-68
2023/05/10 06:22:48;;;;;;;;;;;;;;;-144.99;69.27;52219.81;5087962;28;20005;-68
2023/05/10 06:25:17;;;;;;;;;;;;;;;-144.99;69.02;52211.66;5098722;28;19974;-68
2023/05/10 06:27:44;;;;;;;;;;;;;;;-144.99;69.00;52207.59;5089837;28;19924;-68
2023/05/10 06:30:13;;;;;;;;;;;;;;;-144.99;68.97;52225.94;5095589;28;20365;-67
2023/05/10 06:32:39;;;;;;;;;;;;;;;-144.99;68.73;52211.66;5087146;27;19932;-68
2023/05/10 06:35:06;;;;;;;;;;;;;;;-144.99;68.64;52187.19;5086676;28;19928;-67
2023/05/10 06:37:33;;;;;;;;;;;;;;;-144.99;68.66;52174.97;5086744;28;20046;-67
2023/05/10 06:40:00;;;;;;;;;;;;;;;-144.99;68.62;52203.50;5087309;28;19928;-67
2023/05/10 06:42:28;;;;;;;;;;;;;;;-144.99;68.64;52177.00;5087432;28;20599;-67
2023/05/10 06:44:55;;;;;;;;;;;;;;;-144.99;68.75;52142.38;5100745;28;20003;-67
2023/05/10 06:47:21;;;;;;;;;;;;;;;-144.99;68.85;52136.25;5086110;28;19985;-67
2023/05/10 06:49:48;;;;;;;;;;;;;;;-144.99;69.16;52195.34;5085673;28;19939;-67
2023/05/10 06:52:14;;;;;;;;;;;;;;;-144.99;68.89;52181.09;5093593;28;20407;-68
2023/05/10 06:54:41;;;;;;;;;;;;;;;-144.99;69.32;52191.28;4745528;27;9999958;-68
2023/05/10 06:57:08;;;;;;;;;;;;;;;-144.99;69.41;52197.41;5095057;28;20005;-68
2023/05/10 06:59:36;;;;;;;;;;;;;;;-144.99;69.57;52162.75;5094086;28;19995;-68
2023/05/10 07:02:03;;;;;;;;;;;;;;;-144.99;68.93;52183.13;5101646;28;20369;-68
2023/05/10 07:04:29;;;;;;;;;;;;;;;-144.99;68.71;52154.59;5095542;28;19936;-68
2023/05/10 07:06:56;;;;;;;;;;;;;;;-144.99;68.68;52154.59;5094347;28;19928;-68
2023/05/10 07:09:23;;;;;;;;;;;;;;;-144.99;68.45;52170.91;5091111;28;20353;-68
2023/05/10 07:11:49;;;;;;;;;;;;;;;-144.99;68.32;52191.28;5093977;28;19947;-68
2023/05/10 07:14:16;;;;;;;;;;;;;;;-144.99;68.18;52174.97;5088526;27;20349;-68
2023/05/10 07:16:44;;;;;;;;;;;;;;;-144.99;68.22;52183.13;5085199;28;20350;-68
2023/05/10 07:19:10;;;;;;;;;;;;;;;-144.99;67.83;52164.78;5092043;28;20014;-68
2023/05/10 07:21:37;;;;;;;;;;;;;;;-144.99;67.86;52183.13;5101057;28;19988;-69
2023/05/10 07:24:03;;;;;;;;;;;;;;;-144.99;67.74;52215.75;5086463;28;20008;-69
2023/05/10 07:26:30;;;;;;;;;;;;;;;-144.99;67.56;52177.00;5094128;28;20006;-69
2023/05/10 07:28:57;;;;;;;;;;;;;;;-144.99;67.48;52187.19;5087872;28;20005;-69
2023/05/10 07:31:23;;;;;;;;;;;;;;;-144.99;68.07;52183.13;5085749;28;20005;-68
2023/05/10 07:33:51;;;;;;;;;;;;;;;-144.99;67.97;52187.19;5086853;28;20394;-69
2023/05/10 07:36:17;;;;;;;;;;;;;;;-144.99;67.89;52164.78;5085073;28;20342;-69
2023/05/10 07:38:44;;;;;;;;;;;;;;;-144.99;67.48;52191.28;5086698;28;20182;-69
2023/05/10 07:41:12;;;;;;;;;;;;;;;-144.99;67.21;52179.06;5094423;28;19997;-69
2023/05/10 07:43:39;;;;;;;;;;;;;;;-144.99;67.36;52219.81;5101008;28;19928;-68
2023/05/10 07:46:06;;;;;;;;;;;;;;;-144.99;67.52;52146.44;5092647;28;19928;-69
2023/05/10 07:48:32;;;;;;;;;;;;;;;-144.99;67.73;52179.06;5087430;28;19928;-68
2023/05/10 07:51:00;;;;;;;;;;;;;;;-144.99;67.98;52162.75;5089187;28;19980;-69
2023/05/10 07:53:27;;;;;;;;;;;;;;;-144.99;68.21;52189.25;5089109;28;19971;-69
2023/05/10 07:55:57;;;;;;;;;;;;;;;-144.99;68.39;52195.34;5098364;28;19982;-69
2023/05/10 07:58:24;;;;;;;;;;;;;;;-144.99;68.12;52174.97;5094690;28;19928;-67
2023/05/10 08:00:51;;;;;;;;;;;;;;;-144.99;67.84;52179.06;5096028;28;20425;-68
2023/05/10 08:03:17;;;;;;;;;;;;;;;-144.99;67.82;52154.59;5089831;28;20219;-68
2023/05/10 08:05:44;;;;;;;;;;;;;;;-144.99;67.90;52199.44;5089144;28;19932;-68
2023/05/10 08:08:11;;;;;;;;;;;;;;;-144.99;68.32;52203.50;5100485;28;19967;-68
2023/05/10 08:10:38;;;;;;;;;;;;;;;-144.99;68.64;52197.41;5099711;28;19967;-68
2023/05/10 08:13:05;;;;;;;;;;;;;;;-144.99;68.94;52199.44;5095486;28;19963;-68
2023/05/10 08:15:31;;;;;;;;;;;;;;;-144.99;69.11;52166.81;5092227;27;20274;-68
2023/05/10 08:17:58;;;;;;;;;;;;;;;-144.99;69.51;52138.28;5092085;28;19928;-68
2023/05/10 08:20:24;;;;;;;;;;;;;;;-144.99;69.52;52179.06;5090376;28;20016;-68
2023/05/10 08:22:50;;;;;;;;;;;;;;;-144.99;69.88;52215.75;5091810;28;20100;-67
2023/05/10 08:25:18;;;;;;;;;;;;;;;-144.99;70.39;52183.13;5094197;28;19974;-69
2023/05/10 08:27:45;;;;;;;;;;;;;;;-144.99;70.38;52195.34;5102417;28;20298;-70
2023/05/10 08:30:13;;;;;;;;;;;;;;;-144.99;70.88;52172.94;5093402;28;20388;-70
2023/05/10 08:32:40;;;;;;;;;;;;;;;-144.99;70.83;52181.09;5087808;28;19983;-69
2023/05/10 08:35:07;;;;;;;;;;;;;;;-144.99;71.17;52170.91;5097071;28;20426;-70
2023/05/10 08:37:33;;;;;;;;;;;;;;;-144.99;71.52;52174.97;5087907;28;20045;-70
2023/05/10 08:40:00;;;;;;;;;;;;;;;-144.99;71.30;52164.78;5097663;28;19989;-70
2023/05/10 08:42:29;;;;;;;;;;;;;;;-144.99;71.98;52209.63;5087717;28;19935;-70
2023/05/10 08:44:58;;;;;;;;;;;;;;;-144.99;72.85;52197.41;5099825;28;19932;-69
2023/05/10 08:47:24;;;;;;;;;;;;;;;-144.99;72.92;52187.19;5076735;28;19946;-69
2023/05/10 08:49:51;;;;;;;;;;;;;;;-144.99;73.25;52199.44;5088489;28;20377;-69
2023/05/10 08:52:18;;;;;;;;;;;;;;;-144.99;73.20;52199.44;5102197;28;19923;-69
2023/05/10 08:54:44;;;;;;;;;;;;;;;-144.99;73.62;52199.44;5099944;28;19927;-69
2023/05/10 08:57:11;;;;;;;;;;;;;;;-144.99;73.86;52174.97;5091646;28;20371;-69
2023/05/10 08:59:39;;;;;;;;;;;;;;;-144.99;74.37;52215.75;5087195;28;19924;-69
2023/05/10 09:02:07;;;;;;;;;;;;;;;-144.99;74.85;52199.44;5087612;28;19993;-69
2023/05/10 09:04:33;;;;;;;;;;;;;;;-144.99;75.12;52215.75;5095214;28;20012;-69
2023/05/10 09:07:01;;;;;;;;;;;;;;;-144.99;75.23;52211.66;5087330;28;19936;-69
2023/05/10 09:09:28;;;;;;;;;;;;;;;-144.99;76.00;52207.59;5096087;28;20357;-69
2023/05/10 09:11:55;;;;;;;;;;;;;;;-144.99;76.86;52181.09;5096042;28;19960;-69
2023/05/10 09:14:23;;;;;;;;;;;;;;;-144.99;77.12;52187.19;5097301;27;19928;-70
2023/05/10 09:16:50;;;;;;;;;;;;;;;-144.99;76.33;52197.41;5095499;28;19932;-70
2023/05/10 09:19:17;;;;;;;;;;;;;;;-144.99;76.60;52174.97;5099013;28;19934;-70
2023/05/10 09:21:44;;;;;;;;;;;;;;;-144.99;77.16;52166.81;5096183;28;20538;-69
2023/05/10 09:24:10;;;;;;;;;;;;;;;-144.99;76.95;52193.31;5089504;28;19939;-69
2023/05/10 09:26:46;;;;;;;;;;;;;;;-144.99;77.55;52215.75;5088436;28;20385;-71
2023/05/10 09:29:13;;;;;;;;;;;;;;;-144.99;76.83;52191.28;5091179;28;19932;-70
2023/05/10 09:31:47;;;;;;;;;;;;;;;-144.99;76.13;52170.91;5087419;27;19928;-70
2023/05/10 09:34:18;;;;;;;;;;;;;;;-144.99;77.19;52183.13;5087411;28;20342;-70
2023/05/10 09:36:51;;;;;;;;;;;;;;;-144.99;77.50;52189.25;5097279;28;20383;-70
2023/05/10 09:39:18;;;;;;;;;;;;;;;-144.99;77.83;52223.88;5093362;28;20318;-69
2023/05/10 09:41:45;;;;;;;;;;;;;;;-144.99;78.50;52201.47;5087957;28;20400;-69
2023/05/10 09:44:12;;;;;;;;;;;;;;;-144.99;78.55;52213.69;5089410;28;20026;-69
2023/05/10 09:46:39;;;;;;;;;;;;;;;-144.99;79.07;52170.91;5092731;28;20304;-69
2023/05/10 09:49:06;;;;;;;;;;;;;;;-144.99;79.44;52203.50;5086962;28;19936;-69
2023/05/10 09:51:35;;;;;;;;;;;;;;;-144.99;79.97;52191.28;5086974;28;19989;-69
2023/05/10 09:54:11;;;;;;;;;;;;;;;-144.99;80.18;52205.53;5096709;28;20122;-69
2023/05/10 09:56:39;;;;;;;;;;;;;;;-144.99;81.28;52203.50;5097223;28;19960;-69
2023/05/10 09:59:06;;;;;;;;;;;;;;;-144.99;81.74;52199.44;5093932;28;20018;-69
2023/05/10 10:01:33;;;;;;;;;;;;;;;-144.99;82.51;52199.44;5091958;28;19932;-70
2023/05/10 10:03:59;;;;;;;;;;;;;;;-144.99;83.86;52236.13;5094954;28;19928;-70
2023/05/10 10:06:26;;;;;;;;;;;;;;;-144.99;85.24;52191.28;5087216;28;20438;-70
2023/05/10 10:08:55;;;;;;;;;;;;;;;-144.99;86.05;52195.34;5102593;28;19932;-71
2023/05/10 10:11:24;;;;;;;;;;;;;;;-144.99;86.92;52244.28;5096071;28;19924;-72
2023/05/10 10:13:50;;;;;;;;;;;;;;;-144.99;86.60;52203.50;5093454;27;19935;-72
2023/05/10 10:16:17;;;;;;;;;;;;;;;-144.99;88.79;52185.16;5092839;28;20426;-73
2023/05/10 10:18:44;;;;;;;;;;;;;;;-144.99;89.56;52195.34;5095464;28;20089;-73
2023/05/10 10:21:10;;;;;;;;;;;;;;;-144.99;90.35;52174.97;5093000;28;19924;-72
2023/05/10 10:23:37;;;;;;;;;;;;;;;-144.99;91.09;52215.75;5086445;28;20357;-73
2023/05/10 10:26:05;;;;;;;;;;;;;;;-144.99;91.81;52244.28;5092425;28;20281;-73
2023/05/10 10:28:36;;;;;;;;;;;;;;;-144.99;94.63;52215.75;5096967;28;20024;-74
2023/05/10 10:31:14;;;;;;;;;;;;;;;-144.99;91.59;52203.50;5093937;28;20004;-74
2023/05/10 10:33:51;;;;;;;;;;;;;;;-144.99;93.11;52215.75;5095545;28;19928;-71
2023/05/10 10:36:17;;;;;;;;;;;;;;;-144.99;93.57;52199.44;5097373;28;19970;-71
2023/05/10 10:38:59;;;;;;;;;;;;;;;-144.99;93.28;52187.19;5093358;28;20006;-71
2023/05/10 10:41:31;;;;;;;;;;;;;;;-144.99;91.70;52166.81;5093433;28;19980;-72
2023/05/10 10:44:16;;;;;;;;;;;;;;;-144.99;93.07;52195.34;5090138;28;20307;-73
2023/05/10 10:46:58;;;;;;;;;;;;;;;-144.99;93.17;52199.44;5087640;28;19931;-72
2023/05/10 10:49:24;;;;;;;;;;;;;;;-144.99;92.88;52219.81;5092981;28;19928;-72
2023/05/10 10:52:09;;;;;;;;;;;;;;;-144.99;92.88;52187.19;5090965;28;19989;-72
2023/05/10 10:54:36;;;;;;;;;;;;;;;-144.99;95.62;52207.59;5091246;28;20012;-72
2023/05/10 10:57:13;;;;;;;;;;;;;;;-144.99;96.39;52232.03;5090225;28;20339;-72
2023/05/10 10:59:43;;;;;;;;;;;;;;;-144.99;97.11;52203.50;5087387;28;20311;-73
2023/05/10 11:02:09;;;;;;;;;;;;;;;-144.99;97.39;52203.50;5087226;28;20023;-73
2023/05/10 11:04:43;;;;;;;;;;;;;;;-144.99;96.12;52211.66;5088918;28;19935;-73
2023/05/10 11:07:18;;;;;;;;;;;;;;;-144.99;96.61;52191.28;5097270;28;20278;-74
2023/05/10 11:09:44;;;;;;;;;;;;;;;-144.99;96.59;52170.91;5092414;28;20416;-74
2023/05/10 11:12:12;;;;;;;;;;;;;;;-144.99;97.94;52215.75;5100143;28;19928;-73
2023/05/10 11:14:39;;;;;;;;;;;;;;;-144.99;99.50;52211.66;5095427;27;19960;-73
2023/05/10 11:17:20;;;;;;;;;;;;;;;-144.99;100.00;52205.53;5085907;28;20016;-73
2023/05/10 11:20:02;;;;;;;;;;;;;;;-144.99;100.00;52227.97;5087306;28;20165;-73
2023/05/10 11:22:28;;;;;;;;;;;;;;;-144.99;100.00;52197.41;5090651;28;20021;-72
2023/05/10 11:24:59;;;;;;;;;;;;;;;-144.99;100.00;52244.28;5098058;28;20002;-74
2023/05/10 11:27:26;;;;;;;;;;;;;;;-144.99;100.00;52223.88;5098047;28;19928;-72
2023/05/10 11:29:53;;;;;;;;;;;;;;;-144.99;100.00;52211.66;5087151;28;20359;-73
2023/05/10 11:32:20;;;;;;;;;;;;;;;-144.99;100.00;52246.31;5088020;28;20017;-73
2023/05/10 11:34:48;;;;;;;;;;;;;;;-144.99;100.00;52285.03;5087336;28;20221;-74
2023/05/10 11:37:15;;;;;;;;;;;;;;;-144.99;100.00;52244.28;5092260;28;19928;-75
2023/05/10 11:39:47;;;;;;;;;;;;;;;-144.99;100.00;52244.28;5098156;28;19948;-73
2023/05/10 11:42:13;;;;;;;;;;;;;;;-144.99;100.00;52211.66;5088758;28;19928;-73
2023/05/10 11:44:43;;;;;;;;;;;;;;;-144.99;100.00;52227.97;5102424;28;20253;-73
2023/05/10 11:47:10;;;;;;;;;;;;;;;-144.99;100.00;52203.50;5087993;28;20347;-72
2023/05/10 11:49:36;;;;;;;;;;;;;;;-144.99;100.00;52179.06;5089350;28;20015;-72
2023/05/10 11:52:06;;;;;;;;;;;;;;;-144.99;100.00;52238.16;5091830;28;19959;-72
2023/05/10 11:54:34;;;;;;;;;;;;;;;-144.99;100.00;52187.19;5096865;28;20011;-72
2023/05/10 11:57:01;;;;;;;;;;;;;;;-144.99;100.00;52174.97;5098621;28;19935;-74
2023/05/10 11:59:27;;;;;;;;;;;;;;;-144.99;100.00;52203.50;5098278;28;19961;-73
2023/05/10 12:01:55;;;;;;;;;;;;;;;-144.99;100.00;52195.34;5088947;28;19928;-71
2023/05/10 12:04:22;;;;;;;;;;;;;;;-144.99;100.00;52203.50;5100153;28;19944;-73
2023/05/10 12:06:49;;;;;;;;;;;;;;;-144.99;100.00;52174.97;5094429;28;19927;-73
2023/05/10 12:09:15;;;;;;;;;;;;;;;-144.99;100.00;52183.13;5100255;28;19989;-74
2023/05/10 12:11:42;;;;;;;;;;;;;;;-144.99;100.00;52195.34;5086809;28;19938;-73
2023/05/10 12:14:09;;;;;;;;;;;;;;;-144.99;100.00;52197.41;5097147;28;19963;-74
2023/05/10 12:16:36;;;;;;;;;;;;;;;-144.99;100.00;52195.34;5088032;28;19936;-74
2023/05/10 12:19:05;;;;;;;;;;;;;;;-144.99;100.00;52154.59;5095133;28;19959;-73
2023/05/10 12:21:31;;;;;;;;;;;;;;;-144.99;100.00;52183.13;5086342;28;20531;-73
2023/05/10 12:24:00;;;;;;;;;;;;;;;-144.99;100.00;52193.31;5094215;28;19928;-73
2023/05/10 12:26:28;;;;;;;;;;;;;;;-144.99;100.00;52207.59;5101012;28;19928;-72
2023/05/10 12:28:55;;;;;;;;;;;;;;;-144.99;100.00;52207.59;5097522;28;19923;-73